Map

Track Data

SID SEASON NUMBER BASIN SUBBASIN NAME ISO_TIME NATURE LAT LON WMO_WIND WMO_PRES WMO_AGENCY TRACK_TYPE DIST2LAND LANDFALL IFLAG USA_AGENCY USA_ATCF_ID USA_LAT USA_LON USA_RECORD USA_STATUS USA_WIND USA_PRES USA_SSHS USA_R34_NE USA_R34_SE USA_R34_SW USA_R34_NW USA_R50_NE USA_R50_SE USA_R50_SW USA_R50_NW USA_R64_NE USA_R64_SE USA_R64_SW USA_R64_NW USA_POCI USA_ROCI USA_RMW USA_EYE TOKYO_LAT TOKYO_LON TOKYO_GRADE TOKYO_WIND TOKYO_PRES TOKYO_R50_DIR TOKYO_R50_LONG TOKYO_R50_SHORT TOKYO_R30_DIR TOKYO_R30_LONG TOKYO_R30_SHORT TOKYO_LAND CMA_LAT CMA_LON CMA_CAT CMA_WIND CMA_PRES HKO_LAT HKO_LON HKO_CAT HKO_WIND HKO_PRES NEWDELHI_LAT NEWDELHI_LON NEWDELHI_GRADE NEWDELHI_WIND NEWDELHI_PRES NEWDELHI_CI NEWDELHI_DP NEWDELHI_POCI REUNION_LAT REUNION_LON REUNION_TYPE REUNION_WIND REUNION_PRES REUNION_TNUM REUNION_CI REUNION_RMW REUNION_R34_NE REUNION_R34_SE REUNION_R34_SW REUNION_R34_NW REUNION_R50_NE REUNION_R50_SE REUNION_R50_SW REUNION_R50_NW REUNION_R64_NE REUNION_R64_SE REUNION_R64_SW REUNION_R64_NW BOM_LAT BOM_LON BOM_TYPE BOM_WIND BOM_PRES BOM_TNUM BOM_CI BOM_RMW BOM_R34_NE BOM_R34_SE BOM_R34_SW BOM_R34_NW BOM_R50_NE BOM_R50_SE BOM_R50_SW BOM_R50_NW BOM_R64_NE BOM_R64_SE BOM_R64_SW BOM_R64_NW BOM_ROCI BOM_POCI BOM_EYE BOM_POS_METHOD BOM_PRES_METHOD NADI_LAT NADI_LON NADI_CAT NADI_WIND NADI_PRES WELLINGTON_LAT WELLINGTON_LON WELLINGTON_WIND WELLINGTON_PRES DS824_LAT DS824_LON DS824_STAGE DS824_WIND DS824_PRES TD9636_LAT TD9636_LON TD9636_STAGE TD9636_WIND TD9636_PRES TD9635_LAT TD9635_LON TD9635_WIND TD9635_PRES TD9635_ROCI NEUMANN_LAT NEUMANN_LON NEUMANN_CLASS NEUMANN_WIND NEUMANN_PRES MLC_LAT MLC_LON MLC_CLASS MLC_WIND MLC_PRES USA_GUST BOM_GUST BOM_GUST_PER REUNION_GUST REUNION_GUST_PER USA_SEAHGT USA_SEARAD_NE USA_SEARAD_SE USA_SEARAD_SW USA_SEARAD_NW STORM_SPEED STORM_DIR
2022265N18135 2022 60 WP MM NORU 2022-09-22 00:00:00 NR 17.7000 134.700 PROVISIONAL 1164 1143 O_____________ tcvitals WP182022 17.7000 134.700 25 1002 -1 1008 150 30 6 291
2022265N18135 2022 60 WP MM NORU 2022-09-22 03:00:00 NR 17.8102 134.408 PROVISIONAL 1143 1134 P_____________ WP182022 17.8102 134.408 30 1001 -1 1006 150 25 4 298
2022265N18135 2022 60 WP MM NORU 2022-09-22 06:00:00 NR 17.9000 134.300 PROVISIONAL 1140 1140 O_____________ tcvitals WP182022 17.9000 134.300 35 1000 0 20 45 30 20 1005 150 20 2 16
2022265N18135 2022 60 WP MM NORU 2022-09-22 09:00:00 NR 17.9573 134.452 PROVISIONAL 1163 1163 P_____________ WP182022 17.9573 134.452 35 1001 0 15 40 27 15 1006 150 20 2 62
2022265N18135 2022 60 WP MM NORU 2022-09-22 12:00:00 NR 18.0000 134.500 PROVISIONAL 1163 1128 O_____________ tcvitals WP182022 18.0000 134.500 35 1002 0 11 35 25 11 1007 150 20 4 284
2022265N18135 2022 60 WP MM NORU 2022-09-22 15:00:00 NR 18.0580 134.025 PROVISIONAL 1126 1070 P_____________ WP182022 18.0580 134.025 37 1001 0 11 35 25 11 1006 140 20 11 275
2022265N18135 2022 60 WP MM NORU 2022-09-22 18:00:00 NR 18.1000 133.400 PROVISIONAL 1070 1032 O_____________ tcvitals WP182022 18.1000 133.400 39 1000 0 11 35 25 11 1005 130 20 10 273
2022265N18135 2022 60 WP MM NORU 2022-09-22 21:00:00 NR 18.1148 132.977 PROVISIONAL 1032 994 P_____________ WP182022 18.1148 132.977 39 1000 0 11 35 25 11 1005 130 20 8 270
2022265N18135 2022 60 WP MM NORU 2022-09-23 00:00:00 NR 18.1000 132.600 PROVISIONAL 994 966 O_____________ tcvitals WP182022 18.1000 132.600 39 1000 0 11 35 25 11 1005 130 20 7 266
2022265N18135 2022 60 WP MM NORU 2022-09-23 03:00:00 NR 18.0644 132.260 PROVISIONAL 966 914 P_____________ WP182022 18.0644 132.260 39 999 0 20 47 42 28 1004 128 20 8 263
2022265N18135 2022 60 WP MM NORU 2022-09-23 06:00:00 NR 18.0000 131.800 PROVISIONAL 914 844 O_____________ tcvitals WP182022 18.0000 131.800 39 998 0 30 60 60 45 1004 126 20 12 264
2022265N18135 2022 60 WP MM NORU 2022-09-23 09:00:00 NR 17.9383 131.008 PROVISIONAL 835 758 P_____________ WP182022 17.9383 131.008 42 994 0 40 60 60 62 1005 170 20 15 263
2022265N18135 2022 60 WP MM NORU 2022-09-23 12:00:00 NR 17.8000 130.200 PROVISIONAL 758 711 O_____________ tcvitals WP182022 17.8000 130.200 45 991 0 50 60 60 80 1006 215 20 13 252
2022265N18135 2022 60 WP MM NORU 2022-09-23 15:00:00 NR 17.5442 129.728 PROVISIONAL 695 641 P_____________ WP182022 17.5442 129.728 45 994 0 52 57 60 70 1005 215 22 11 235
2022265N18135 2022 60 WP MM NORU 2022-09-23 18:00:00 NR 17.2000 129.300 PROVISIONAL 641 563 O_____________ tcvitals WP182022 17.2000 129.300 45 997 0 55 55 60 60 1005 215 25 13 233
2022265N18135 2022 60 WP MM NORU 2022-09-23 21:00:00 NR 16.7851 128.672 PROVISIONAL 563 477 P_____________ WP182022 16.7851 128.672 48 996 0 52 52 52 57 1005 215 22 15 237
2022265N18135 2022 60 WP MM NORU 2022-09-24 00:00:00 NR 16.4000 128.000 PROVISIONAL 477 412 O_____________ tcvitals WP182022 16.4000 128.000 51 995 0 50 50 45 55 1005 215 20 14 244
2022265N18135 2022 60 WP MM NORU 2022-09-24 03:00:00 NR 16.1700 127.363 PROVISIONAL 412 348 P_____________ WP182022 16.1700 127.363 52 992 0 60 47 50 65 1004 210 17 12 251
2022265N18135 2022 60 WP MM NORU 2022-09-24 06:00:00 NR 16.0000 126.800 PROVISIONAL 348 302 O_____________ tcvitals WP182022 16.0000 126.800 54 990 0 70 45 55 75 1003 205 14 10 248
2022265N18135 2022 60 WP MM NORU 2022-09-24 09:00:00 NR 15.8070 126.408 PROVISIONAL 302 255 P_____________ WP182022 15.8070 126.408 64 984 1 65 47 60 72 1004 200 14 9 243
2022265N18135 2022 60 WP MM NORU 2022-09-24 12:00:00 NR 15.6000 126.000 PROVISIONAL 255 187 O_____________ tcvitals WP182022 15.6000 126.000 74 979 1 60 50 65 70 1005 195 14 11 245
2022265N18135 2022 60 WP MM NORU 2022-09-24 15:00:00 NR 15.3278 125.365 PROVISIONAL 187 130 P_____________ WP182022 15.3278 125.365 104 952 3 70 57 72 80 1004 180 10 14 248
2022265N18135 2022 60 WP MM NORU 2022-09-24 18:00:00 NR 15.1000 124.700 PROVISIONAL 130 111 O_____________ tcvitals WP182022 15.1000 124.700 134 925 4 80 65 80 90 1003 165 6 12 254
2022265N18135 2022 60 WP MM NORU 2022-09-24 21:00:00 NR 15.0121 124.193 PROVISIONAL 111 111 P_____________ WP182022 15.0121 124.193 136 922 4 80 67 75 85 1003 165 5 10 264
2022265N18135 2022 60 WP MM NORU 2022-09-25 00:00:00 NR 15.0000 123.700 PROVISIONAL 119 92 O_____________ tcvitals WP182022 15.0000 123.700 138 919 5 80 70 70 80 1003 165 5 10 269
2022265N18135 2022 60 WP MM NORU 2022-09-25 03:00:00 NR 14.9850 123.107 PROVISIONAL 92 89 P_____________ WP182022 14.9850 123.107 133 922 4 80 70 62 77 1003 160 5 12 270
2022265N18135 2022 60 WP MM NORU 2022-09-25 06:00:00 NR 15.0000 122.500 PROVISIONAL 89 46 O_____________ tcvitals WP182022 15.0000 122.500 128 925 4 80 70 55 75 1003 155 6 11 271
2022265N18135 2022 60 WP MM NORU 2022-09-25 09:00:00 NR 15.0120 121.980 PROVISIONAL 46 0 P_____________ WP182022 15.0120 121.980 121 928 4 77 65 62 57 1004 212 5 11 275
2022265N18135 2022 60 WP MM NORU 2022-09-25 12:00:00 NR 15.1000 121.400 PROVISIONAL 0 0 O_____________ tcvitals WP182022 15.1000 121.400 115 932 4 75 60 70 40 1005 270 5 14 284
2022265N18135 2022 60 WP MM NORU 2022-09-25 15:00:00 NR 15.3352 120.623 PROVISIONAL 0 0 P_____________ WP182022 15.3352 120.623 102 950 3 80 65 75 65 1005 225 7 16 288
2022265N18135 2022 60 WP MM NORU 2022-09-25 18:00:00 NR 15.6000 119.800 PROVISIONAL 15 15 O_____________ tcvitals WP182022 15.6000 119.800 89 968 2 85 70 80 90 1005 180 10 15 287
2022265N18135 2022 60 WP MM NORU 2022-09-25 21:00:00 NR 15.7870 119.092 PROVISIONAL 67 67 P_____________ WP182022 15.7870 119.092 81 973 1 85 70 67 87 1005 180 10 14 283
2022265N18135 2022 60 WP MM NORU 2022-09-26 00:00:00 NR 15.9000 118.400 PROVISIONAL 139 139 O_____________ tcvitals WP182022 15.9000 118.400 74 979 1 85 70 55 85 1005 180 10 14 276
2022265N18135 2022 60 WP MM NORU 2022-09-26 03:00:00 NR 15.9225 117.635 PROVISIONAL 224 224 P_____________ WP182022 15.9225 117.635 77 972 1 97 72 62 90 1005 185 10 14 270
2022265N18135 2022 60 WP MM NORU 2022-09-26 06:00:00 NR 15.9000 116.900 PROVISIONAL 299 299 O_____________ tcvitals WP182022 15.9000 116.900 80 965 1 110 75 70 95 1005 190 10 13 269
2022265N18135 2022 60 WP MM NORU 2022-09-26 09:00:00 NR 15.8992 116.322 PROVISIONAL 363 363 P_____________ WP182022 15.8992 116.322 80 964 1 132 90 87 125 1005 195 10 12 270
2022265N18135 2022 60 WP MM NORU 2022-09-26 12:00:00 NR 15.9000 115.700 PROVISIONAL 427 427 O_____________ tcvitals WP182022 15.9000 115.700 80 963 1 155 105 105 155 1005 200 10 14 271
2022265N18135 2022 60 WP MM NORU 2022-09-26 15:00:00 NR 15.9302 114.838 PROVISIONAL 524 493 P_____________ WP182022 15.9302 114.838 84 959 2 155 105 105 140 1004 215 10 17 270
2022265N18135 2022 60 WP MM NORU 2022-09-26 18:00:00 NR 15.9000 113.900 PROVISIONAL 485 433 O_____________ tcvitals WP182022 15.9000 113.900 89 956 2 155 105 105 126 1004 230 10 18 262
2022265N18135 2022 60 WP MM NORU 2022-09-26 21:00:00 NR 15.6926 112.989 PROVISIONAL 433 344 P_____________ WP182022 15.6926 112.989 106 950 3 155 105 105 126 1004 230 10 17 256
2022265N18135 2022 60 WP MM NORU 2022-09-27 00:00:00 NR 15.5000 112.200 PROVISIONAL 344 293 O_____________ tcvitals WP182022 15.5000 112.200 124 944 4 155 105 105 126 1004 230 10 13 262
2022265N18135 2022 60 WP MM NORU 2022-09-27 03:00:00 NR 15.5045 111.640 PROVISIONAL 283 246 P_____________ WP182022 15.5045 111.640 124 939 4 130 102 102 115 1003 230 8 10 276
2022265N18135 2022 60 WP MM NORU 2022-09-27 06:00:00 NR 15.6000 111.200 PROVISIONAL 246 211 O_____________ tcvitals WP182022 15.6000 111.200 124 934 4 105 100 100 105 1002 230 6 9 283
2022265N18135 2022 60 WP MM NORU 2022-09-27 09:00:00 NR 15.6921 110.772 PROVISIONAL 211 164 P_____________ WP182022 15.6921 110.772 114 941 4 105 100 100 105 1001 217 5 9 283
2022265N18135 2022 60 WP MM NORU 2022-09-27 12:00:00 NR 15.8000 110.300 PROVISIONAL 164 116 O_____________ tcvitals WP182022 15.8000 110.300 105 949 3 105 100 100 105 1000 205 5 11 282
2022265N18135 2022 60 WP MM NORU 2022-09-27 15:00:00 NR 15.9151 109.673 PROVISIONAL 116 67 P_____________ WP182022 15.9151 109.673 99 953 3 105 100 100 105 1000 205 5 13 279
2022265N18135 2022 60 WP MM NORU 2022-09-27 18:00:00 NR 16.0000 109.000 PROVISIONAL 67 21 O_____________ tcvitals WP182022 16.0000 109.000 93 958 2 105 100 100 105 1000 205 5 12 276
2022265N18135 2022 60 WP MM NORU 2022-09-27 21:00:00 NR 16.0441 108.453 PROVISIONAL 21 0 P_____________ WP182022 16.0441 108.453 86 964 2 105 100 100 105 1000 227 5 12 270
2022265N18135 2022 60 WP MM NORU 2022-09-28 00:00:00 NR 16.0000 107.800 PROVISIONAL 0 0 O_____________ tcvitals WP182022 16.0000 107.800 80 970 1 105 100 100 105 1001 250 5 15 262
2022265N18135 2022 60 WP MM NORU 2022-09-28 03:00:00 NR 15.8366 106.882 PROVISIONAL 0 0 P_____________ WP182022 15.8366 106.882 65 979 1 130 75 75 82 1000 210 12 20 258
2022265N18135 2022 60 WP MM NORU 2022-09-28 06:00:00 NR 15.6000 105.800 PROVISIONAL 0 O_____________ tcvitals WP182022 15.6000 105.800 51 989 0 155 50 50 60 1000 170 20 21 257

Digital Typhoon Data and Search

About IBTrACS Database

This database is a web-friendly format of International Best Track Archive for Climate Stewardship (IBTrACS), a global best track data archive curated by NOAA dating back to 1842.

Updated: 2022-11-16